createdAt,value
2023-04-16T00:02:21.884Z,100857.94
2023-04-16T00:04:50.770Z,100857.09
2023-04-16T00:07:18.195Z,100864.75
2023-04-16T00:09:46.537Z,100864.69
2023-04-16T00:12:14.814Z,100862.41
2023-04-16T00:14:43.643Z,100866.84
2023-04-16T00:17:11.175Z,100863.84
2023-04-16T00:19:38.961Z,100871.38
2023-04-16T00:22:07.720Z,100863.94
2023-04-16T00:24:35.163Z,100862.31
2023-04-16T00:27:02.536Z,100866.38
2023-04-16T00:29:31.164Z,100858.78
2023-04-16T00:31:58.611Z,100867.38
2023-04-16T00:34:26.179Z,100859.84
2023-04-16T00:36:53.452Z,100865.00
2023-04-16T00:39:22.344Z,100866.81
2023-04-16T00:41:49.630Z,100862.00
2023-04-16T00:44:17.218Z,100864.69
2023-04-16T00:46:46.164Z,100862.22
2023-04-16T00:49:13.799Z,100864.75
2023-04-16T00:51:41.792Z,100870.00
2023-04-16T00:54:09.191Z,100864.34
2023-04-16T00:56:38.890Z,100861.81
2023-04-16T00:59:06.260Z,100861.00
2023-04-16T01:01:33.717Z,100850.22
2023-04-16T01:04:01.315Z,100856.91
2023-04-16T01:06:29.036Z,100844.50
2023-04-16T01:08:56.594Z,100859.66
2023-04-16T01:11:24.671Z,100854.72
2023-04-16T01:13:53.464Z,100850.66
2023-04-16T01:16:21.424Z,100853.09
2023-04-16T01:18:48.867Z,100853.19
2023-04-16T01:21:17.815Z,100855.03
2023-04-16T01:23:45.347Z,100851.81
2023-04-16T01:26:13.024Z,100853.53
2023-04-16T01:28:42.098Z,100858.56
2023-04-16T01:31:09.636Z,100851.09
2023-04-16T01:33:46.500Z,100853.72
2023-04-16T01:36:13.894Z,100858.06
2023-04-16T01:38:42.834Z,100850.53
2023-04-16T01:41:10.198Z,100850.53
2023-04-16T01:43:40.068Z,100840.84
2023-04-16T01:46:16.087Z,100845.84
2023-04-16T01:48:43.701Z,100849.16
2023-04-16T01:51:11.146Z,100850.97
2023-04-16T01:53:38.912Z,100855.34
2023-04-16T01:56:08.179Z,100856.44
2023-04-16T01:58:36.042Z,100852.38
2023-04-16T02:01:04.565Z,100855.88
2023-04-16T02:03:32.966Z,100855.19
2023-04-16T02:06:01.378Z,100858.59
2023-04-16T02:08:29.633Z,100867.06
2023-04-16T02:10:57.940Z,100862.84
2023-04-16T02:13:27.825Z,100864.34
2023-04-16T02:15:55.592Z,100861.00
2023-04-16T02:19:04.084Z,100863.31
2023-04-16T02:21:34.670Z,100855.88
2023-04-16T02:24:01.980Z,100861.81
2023-04-16T02:26:31.066Z,100867.84
2023-04-16T02:29:06.576Z,100854.69
2023-04-16T02:31:40.545Z,100865.00
2023-04-16T02:34:09.195Z,100859.28
2023-04-16T02:36:36.738Z,100861.94
2023-04-16T02:39:04.771Z,100858.03
2023-04-16T02:41:32.216Z,100866.44
2023-04-16T02:43:59.675Z,100867.25
2023-04-16T02:46:29.229Z,100873.13
2023-04-16T02:48:56.750Z,100864.59
2023-04-16T02:51:24.159Z,100861.19
2023-04-16T02:53:51.505Z,100866.19
2023-04-16T02:56:18.890Z,100868.56
2023-04-16T02:58:46.350Z,100872.78
2023-04-16T03:01:13.727Z,100874.22
2023-04-16T03:03:42.603Z,100875.81
2023-04-16T03:06:09.955Z,100871.56
2023-04-16T03:08:37.300Z,100871.38
2023-04-16T03:11:04.993Z,100876.34
2023-04-16T03:13:32.407Z,100867.94
2023-04-16T03:16:00.219Z,100873.75
2023-04-16T03:18:27.764Z,100871.38
2023-04-16T03:20:56.441Z,100878.88
2023-04-16T03:23:23.988Z,100885.50
2023-04-16T03:25:51.304Z,100882.22
2023-04-16T03:28:19.176Z,100881.19
2023-04-16T03:30:51.420Z,100877.13
2023-04-16T03:33:19.129Z,100875.69
2023-04-16T03:35:46.624Z,100869.13
2023-04-16T03:38:35.297Z,100871.56
2023-04-16T03:41:02.575Z,100880.56
2023-04-16T03:43:33.105Z,100882.09
2023-04-16T03:46:01.041Z,100881.81
2023-04-16T03:48:28.311Z,100874.84
2023-04-16T03:50:56.015Z,100877.09
2023-04-16T03:53:23.670Z,100877.03
2023-04-16T03:55:53.159Z,100884.31
2023-04-16T03:58:21.968Z,100870.47
2023-04-16T04:00:49.270Z,100880.84
2023-04-16T04:03:18.759Z,100879.59
2023-04-16T04:05:50.585Z,100884.25
2023-04-16T04:08:25.152Z,100875.72
2023-04-16T04:10:54.246Z,100872.03
2023-04-16T04:13:23.765Z,100876.06
2023-04-16T04:15:52.658Z,100881.56
2023-04-16T04:18:24.091Z,100877.63
2023-04-16T04:20:51.803Z,100873.72
2023-04-16T04:23:21.483Z,100873.41
2023-04-16T04:25:49.013Z,100880.69
2023-04-16T04:28:17.795Z,100878.63
2023-04-16T04:30:45.363Z,100870.56
2023-04-16T04:33:13.344Z,100876.13
2023-04-16T04:35:40.997Z,100879.09
2023-04-16T04:38:09.501Z,100887.78
2023-04-16T04:40:36.931Z,100875.38
2023-04-16T04:43:07.326Z,100864.06
2023-04-16T04:45:36.253Z,100870.69
2023-04-16T04:48:05.606Z,100873.31
2023-04-16T04:50:33.120Z,100868.00
2023-04-16T04:53:01.025Z,100876.03
2023-04-16T04:55:28.393Z,100867.41
2023-04-16T04:57:56.445Z,100873.47
2023-04-16T05:00:23.856Z,100876.16
2023-04-16T05:02:56.458Z,100872.94
2023-04-16T05:05:23.968Z,100875.25
2023-04-16T05:07:51.385Z,100876.25
2023-04-16T05:10:18.694Z,100879.09
2023-04-16T05:12:49.169Z,100872.72
2023-04-16T05:15:16.722Z,100878.25
2023-04-16T05:17:44.135Z,100878.88
2023-04-16T05:20:13.064Z,100874.13
2023-04-16T05:22:40.518Z,100877.56
2023-04-16T05:25:09.000Z,100870.72
2023-04-16T05:27:37.208Z,100878.31
2023-04-16T05:30:05.610Z,100870.72
2023-04-16T05:32:33.542Z,100872.81
2023-04-16T05:35:01.187Z,100874.38
2023-04-16T05:37:30.822Z,100866.00
2023-04-16T05:39:58.123Z,100867.78
2023-04-16T05:42:25.646Z,100857.00
2023-04-16T05:44:53.110Z,100865.63
2023-04-16T05:47:20.650Z,100865.91
2023-04-16T05:49:48.040Z,100857.97
2023-04-16T05:52:15.606Z,100855.25
2023-04-16T05:54:44.246Z,100854.13
2023-04-16T05:57:11.875Z,100850.44
2023-04-16T05:59:39.202Z,100848.75
2023-04-16T06:02:07.349Z,100847.06
2023-04-16T06:04:35.945Z,100853.81
2023-04-16T06:07:03.606Z,100859.19
2023-04-16T06:09:31.148Z,100854.94
2023-04-16T06:12:00.139Z,100851.47
2023-04-16T06:14:27.826Z,100844.63
2023-04-16T06:16:55.641Z,100860.69
2023-04-16T06:19:23.206Z,100859.19
2023-04-16T06:21:51.290Z,100854.72
2023-04-16T06:24:18.614Z,100854.88
2023-04-16T06:26:46.021Z,100852.66
2023-04-16T06:29:15.427Z,100847.13
2023-04-16T06:31:42.952Z,100846.91
2023-04-16T06:34:10.552Z,100854.69
2023-04-16T06:36:37.927Z,100850.25
2023-04-16T06:39:05.315Z,100854.47
2023-04-16T06:41:32.748Z,100850.59
2023-04-16T06:44:00.010Z,100842.41
2023-04-16T06:46:28.777Z,100853.31
2023-04-16T06:48:56.166Z,100845.31
2023-04-16T06:51:23.493Z,100852.94
2023-04-16T06:53:51.376Z,100851.44
2023-04-16T06:56:18.885Z,100850.91
2023-04-16T06:58:46.300Z,100846.81
2023-04-16T07:01:13.835Z,100852.31
2023-04-16T07:03:43.128Z,100843.25
2023-04-16T07:06:10.895Z,100844.34
2023-04-16T07:08:38.473Z,100850.06
2023-04-16T07:11:06.150Z,100841.38
2023-04-16T07:13:33.650Z,100836.72
2023-04-16T07:16:01.032Z,100838.69
2023-04-16T07:18:28.570Z,100837.28
2023-04-16T07:20:57.571Z,100838.34
2023-04-16T07:23:24.977Z,100842.66
2023-04-16T07:25:52.306Z,100837.97
2023-04-16T07:28:20.413Z,100840.09
2023-04-16T07:30:47.938Z,100845.66
2023-04-16T07:33:15.655Z,100847.28
2023-04-16T07:35:43.271Z,100842.16
2023-04-16T07:38:12.094Z,100839.16
2023-04-16T07:40:39.534Z,100837.91
2023-04-16T07:43:07.321Z,100845.44
2023-04-16T07:45:34.798Z,100834.19
2023-04-16T07:48:02.240Z,100834.31
2023-04-16T07:50:29.766Z,100839.53
2023-04-16T07:52:57.119Z,100824.31
2023-04-16T07:55:26.019Z,100829.28
2023-04-16T07:57:53.981Z,100820.56
2023-04-16T08:00:21.826Z,100819.72
2023-04-16T08:02:49.534Z,100811.38
2023-04-16T08:05:17.267Z,100821.66
2023-04-16T08:07:44.697Z,100821.69
2023-04-16T08:10:12.968Z,100811.22
2023-04-16T08:12:41.820Z,100811.44
2023-04-16T08:15:10.094Z,100808.78
2023-04-16T08:17:37.916Z,100806.03
2023-04-16T08:20:09.510Z,100809.94
2023-04-16T08:22:37.403Z,100801.56
2023-04-16T08:25:05.221Z,100799.81
2023-04-16T08:27:32.642Z,100805.31
2023-04-16T08:30:01.395Z,100809.50
2023-04-16T08:32:32.857Z,100797.47
2023-04-16T08:35:03.361Z,100791.66
2023-04-16T08:37:32.150Z,100796.28
2023-04-16T08:40:01.185Z,100795.47
2023-04-16T08:42:34.519Z,100787.59
2023-04-16T08:45:16.228Z,100773.84
2023-04-16T08:47:46.933Z,100769.94
2023-04-16T08:50:15.851Z,100780.09
2023-04-16T08:52:47.321Z,100770.91
2023-04-16T08:55:19.000Z,100777.50
2023-04-16T08:57:49.700Z,100763.06
2023-04-16T09:00:19.435Z,100766.31
2023-04-16T09:02:47.154Z,100757.63
2023-04-16T09:05:21.933Z,100760.59
2023-04-16T09:07:49.449Z,100768.94
2023-04-16T09:10:17.933Z,100758.00
2023-04-16T09:12:45.294Z,100754.25
2023-04-16T09:15:13.761Z,100757.09
2023-04-16T09:17:42.557Z,100764.41
2023-04-16T09:20:11.204Z,100762.78
2023-04-16T09:22:40.511Z,100756.84
2023-04-16T09:25:08.962Z,100766.03
2023-04-16T09:27:37.064Z,100766.84
2023-04-16T09:30:22.017Z,100766.28
2023-04-16T09:32:51.449Z,100768.97
2023-04-16T09:35:20.472Z,100763.84
2023-04-16T09:37:57.849Z,100748.69
2023-04-16T09:40:27.353Z,100750.34
2023-04-16T09:42:58.601Z,100755.75
2023-04-16T09:45:26.416Z,100747.13
2023-04-16T09:48:04.129Z,100744.16
2023-04-16T09:50:31.593Z,100774.00
2023-04-16T09:53:03.676Z,100745.50
2023-04-16T09:55:30.646Z,100764.28
2023-04-16T09:58:01.865Z,100750.84
2023-04-16T10:00:30.806Z,100744.25
2023-04-16T10:03:06.193Z,100753.88
2023-04-16T10:05:33.947Z,100746.28
2023-04-16T10:08:04.354Z,100742.19
2023-04-16T10:10:32.587Z,100742.97
2023-04-16T10:13:00.259Z,100749.56
2023-04-16T10:15:28.400Z,100727.31
2023-04-16T10:17:57.161Z,100739.38
2023-04-16T10:20:27.074Z,100736.72
2023-04-16T10:22:55.060Z,100729.47
2023-04-16T10:25:28.559Z,100736.78
2023-04-16T10:28:02.848Z,100728.69
2023-04-16T10:30:30.474Z,100732.69
2023-04-16T10:33:02.936Z,100722.75
2023-04-16T10:35:36.061Z,100735.25
2023-04-16T10:38:27.752Z,100742.22
2023-04-16T10:41:03.209Z,100733.16
2023-04-16T10:43:31.257Z,100722.03
2023-04-16T10:46:18.407Z,100713.56
2023-04-16T10:48:50.434Z,100730.66
2023-04-16T10:51:28.774Z,100715.47
2023-04-16T10:53:57.258Z,100710.59
2023-04-16T10:56:25.743Z,100715.75
2023-04-16T10:58:59.243Z,100720.53
2023-04-16T11:01:37.396Z,100711.72
2023-04-16T11:04:28.804Z,100715.88
2023-04-16T11:07:18.843Z,100697.56
2023-04-16T11:09:57.760Z,100700.81
2023-04-16T11:12:29.358Z,100712.22
2023-04-16T11:15:03.114Z,100694.13
2023-04-16T11:17:38.103Z,100699.13
2023-04-16T11:20:20.181Z,100694.88
2023-04-16T11:22:51.677Z,100675.00
2023-04-16T11:25:23.058Z,100692.44
2023-04-16T11:27:51.079Z,100679.06
2023-04-16T11:30:19.535Z,100681.84
2023-04-16T11:32:47.140Z,100677.56
2023-04-16T11:35:17.091Z,100665.94
2023-04-16T11:37:44.777Z,100668.72
2023-04-16T11:40:14.177Z,100667.97
2023-04-16T11:42:42.268Z,100677.72
2023-04-16T11:45:12.009Z,100667.28
2023-04-16T11:47:46.490Z,100664.31
2023-04-16T11:50:19.087Z,100660.00
2023-04-16T11:52:47.171Z,100661.06
2023-04-16T11:55:16.205Z,100652.97
2023-04-16T11:57:43.895Z,100664.53
2023-04-16T12:00:15.358Z,100650.41
2023-04-16T12:02:46.280Z,100641.50
2023-04-16T12:05:30.900Z,100641.88
2023-04-16T12:08:00.466Z,100626.56
2023-04-16T12:10:32.219Z,100638.97
2023-04-16T12:13:12.716Z,100643.47
2023-04-16T12:15:48.230Z,100637.84
2023-04-16T12:18:18.746Z,100633.78
2023-04-16T12:20:46.999Z,100630.09
2023-04-16T12:23:24.170Z,100620.56
2023-04-16T12:25:53.246Z,100643.97
2023-04-16T12:28:31.331Z,100621.91
2023-04-16T12:30:58.783Z,100629.94
2023-04-16T12:33:26.399Z,100629.13
2023-04-16T12:35:54.989Z,100618.47
2023-04-16T12:38:24.505Z,100628.84
2023-04-16T12:40:56.967Z,100602.28
2023-04-16T12:43:25.259Z,100604.13
2023-04-16T12:45:53.071Z,100595.41
2023-04-16T12:48:20.907Z,100599.91
2023-04-16T12:50:48.327Z,100586.59
2023-04-16T12:53:15.806Z,100588.22
2023-04-16T12:55:45.468Z,100590.75
2023-04-16T12:58:14.253Z,100595.31
2023-04-16T13:00:41.588Z,100587.50
2023-04-16T13:03:09.207Z,100585.88
2023-04-16T13:05:37.910Z,100583.13
2023-04-16T13:08:05.931Z,100584.63
2023-04-16T13:10:33.421Z,100589.28
2023-04-16T13:13:00.862Z,100587.34
2023-04-16T13:15:32.134Z,100583.28
2023-04-16T13:17:59.579Z,100578.75
2023-04-16T13:20:27.017Z,100576.91
2023-04-16T13:22:54.489Z,100566.78
2023-04-16T13:25:21.897Z,100560.72
2023-04-16T13:27:49.353Z,100565.06
2023-04-16T13:30:17.026Z,100549.19
2023-04-16T13:32:46.004Z,100553.69
2023-04-16T13:35:13.326Z,100550.69
2023-04-16T13:37:51.326Z,100554.13
2023-04-16T13:40:18.758Z,100548.09
2023-04-16T13:42:46.148Z,100553.28
2023-04-16T13:45:13.581Z,100537.72
2023-04-16T13:47:42.506Z,100542.88
2023-04-16T13:50:11.960Z,100548.00
2023-04-16T13:52:39.322Z,100544.31
2023-04-16T13:55:09.599Z,100541.50
2023-04-16T13:57:37.425Z,100540.25
2023-04-16T14:00:05.728Z,100539.78
2023-04-16T14:02:34.149Z,100535.47
2023-04-16T14:05:01.715Z,100552.03
2023-04-16T14:07:32.835Z,100548.72
2023-04-16T14:10:00.408Z,100555.84
2023-04-16T14:12:28.542Z,100541.06
2023-04-16T14:14:56.572Z,100542.16
2023-04-16T14:17:23.936Z,100536.34
2023-04-16T14:19:51.496Z,100535.72
2023-04-16T14:22:18.891Z,100531.81
2023-04-16T14:24:47.600Z,100526.19
2023-04-16T14:27:15.077Z,100524.97
2023-04-16T14:29:42.561Z,100523.47
2023-04-16T14:32:09.957Z,100541.69
2023-04-16T14:34:37.534Z,100531.84
2023-04-16T14:37:05.793Z,100525.97
2023-04-16T14:39:33.361Z,100516.34
2023-04-16T14:42:02.205Z,100512.50
2023-04-16T14:44:29.671Z,100511.94
2023-04-16T14:46:57.100Z,100517.31
2023-04-16T14:49:24.974Z,100519.09
2023-04-16T14:51:52.629Z,100514.41
2023-04-16T14:54:20.350Z,100508.41
2023-04-16T14:56:47.691Z,100514.03
2023-04-16T14:59:16.463Z,100512.00
2023-04-16T15:01:44.145Z,100519.66
2023-04-16T15:04:12.019Z,100517.03
2023-04-16T15:06:39.954Z,100513.13
2023-04-16T15:09:08.318Z,100517.66
2023-04-16T15:11:38.291Z,100528.81
2023-04-16T15:14:05.685Z,100510.44
2023-04-16T15:16:34.895Z,100513.03
2023-04-16T15:19:04.862Z,100508.84
2023-04-16T15:21:33.048Z,100495.91
2023-04-16T15:24:00.562Z,100509.97
2023-04-16T15:26:28.099Z,100513.81
2023-04-16T15:28:55.631Z,100517.25
2023-04-16T15:31:23.093Z,100511.34
2023-04-16T15:33:52.914Z,100507.16
2023-04-16T15:36:20.985Z,100512.59
2023-04-16T15:38:48.486Z,100504.47
2023-04-16T15:41:15.977Z,100507.16
2023-04-16T15:43:43.336Z,100511.13
2023-04-16T15:46:10.932Z,100506.13
2023-04-16T15:48:38.392Z,100508.84
2023-04-16T15:51:07.450Z,100502.38
2023-04-16T15:53:35.220Z,100511.31
2023-04-16T15:56:04.331Z,100510.50
2023-04-16T15:58:31.723Z,100508.75
2023-04-16T16:01:02.756Z,100519.69
2023-04-16T16:03:32.336Z,100511.84
2023-04-16T16:06:09.080Z,100509.41
2023-04-16T16:08:38.524Z,100512.41
2023-04-16T16:11:06.103Z,100509.16
2023-04-16T16:13:33.458Z,100501.09
2023-04-16T16:16:01.120Z,100510.31
2023-04-16T16:18:29.584Z,100498.06
2023-04-16T16:21:00.661Z,100505.25
2023-04-16T16:23:33.845Z,100500.53
2023-04-16T16:26:08.497Z,100501.47
2023-04-16T16:28:38.744Z,100507.16
2023-04-16T16:31:07.030Z,100503.28
2023-04-16T16:33:34.424Z,100502.59
2023-04-16T16:36:01.951Z,100509.47
2023-04-16T16:38:29.371Z,100506.09
2023-04-16T16:40:56.767Z,100509.50
2023-04-16T16:43:25.705Z,100507.78
2023-04-16T16:45:53.008Z,100511.06
2023-04-16T16:48:20.282Z,100513.06
2023-04-16T16:50:47.624Z,100514.03
2023-04-16T16:53:17.968Z,100510.41
2023-04-16T16:55:45.294Z,100510.28
2023-04-16T16:58:12.662Z,100512.97
2023-04-16T17:00:41.746Z,100507.31
2023-04-16T17:03:09.627Z,100516.22
2023-04-16T17:05:37.718Z,100517.97
2023-04-16T17:08:06.694Z,100519.97
2023-04-16T17:10:35.348Z,100519.16
2023-04-16T17:13:02.724Z,100517.00
2023-04-16T17:15:30.211Z,100524.28
2023-04-16T17:17:58.968Z,100516.19
2023-04-16T17:20:26.618Z,100518.09
2023-04-16T17:22:54.303Z,100515.00
2023-04-16T17:25:21.716Z,100515.00
2023-04-16T17:27:49.269Z,100519.16
2023-04-16T17:30:17.023Z,100512.44
2023-04-16T17:32:44.599Z,100517.84
2023-04-16T17:35:13.989Z,100517.00
2023-04-16T17:37:41.893Z,100513.81
2023-04-16T17:40:10.194Z,100507.16
2023-04-16T17:42:38.954Z,100525.41
2023-04-16T17:45:07.531Z,100514.47
2023-04-16T17:47:36.058Z,100516.22
2023-04-16T17:50:04.008Z,100518.75
2023-04-16T17:52:33.232Z,100510.28
2023-04-16T17:55:01.746Z,100514.59
2023-04-16T17:57:32.061Z,100517.44
2023-04-16T17:59:59.436Z,100517.81
2023-04-16T18:02:27.260Z,100513.09
2023-04-16T18:04:54.802Z,100510.25
2023-04-16T18:07:22.449Z,100504.59
2023-04-16T18:09:51.293Z,100508.09
2023-04-16T18:12:18.642Z,100506.34
2023-04-16T18:14:46.305Z,100502.31
2023-04-16T18:17:13.773Z,100498.00
2023-04-16T18:19:43.790Z,100510.00
2023-04-16T18:22:13.278Z,100502.97
2023-04-16T18:24:40.818Z,100497.59
2023-04-16T18:27:09.729Z,100494.06
2023-04-16T18:29:39.635Z,100491.66
2023-04-16T18:32:11.442Z,100496.09
2023-04-16T18:34:39.798Z,100493.66
2023-04-16T18:37:07.605Z,100492.59
2023-04-16T18:39:36.517Z,100488.94
2023-04-16T18:42:04.230Z,100497.56
2023-04-16T18:44:32.920Z,100495.94
2023-04-16T18:47:00.482Z,100494.31
2023-04-16T18:49:27.924Z,100495.13
2023-04-16T18:51:55.992Z,100492.69
2023-04-16T18:54:23.391Z,100490.25
2023-04-16T18:56:51.020Z,100484.19
2023-04-16T18:59:18.284Z,100493.63
2023-04-16T19:01:47.025Z,100495.78
2023-04-16T19:04:14.623Z,100492.03
2023-04-16T19:06:42.254Z,100489.97
2023-04-16T19:09:11.429Z,100485.91
2023-04-16T19:11:39.110Z,100487.81
2023-04-16T19:14:07.929Z,100481.06
2023-04-16T19:16:35.504Z,100487.13
2023-04-16T19:19:04.390Z,100483.88
2023-04-16T19:21:32.627Z,100482.94
2023-04-16T19:24:00.069Z,100492.63
2023-04-16T19:26:28.092Z,100483.72
2023-04-16T19:28:55.450Z,100487.47
2023-04-16T19:31:22.924Z,100482.63
2023-04-16T19:33:50.396Z,100481.53
2023-04-16T19:36:19.100Z,100475.03
2023-04-16T19:38:46.637Z,100480.41
2023-04-16T19:41:13.949Z,100475.56
2023-04-16T19:43:41.162Z,100478.50
2023-04-16T19:46:08.595Z,100478.19
2023-04-16T19:48:36.524Z,100484.75
2023-04-16T19:51:04.376Z,100484.97
2023-04-16T19:53:34.546Z,100485.13
2023-04-16T19:56:01.911Z,100491.28
2023-04-16T19:58:29.349Z,100487.94
2023-04-16T20:00:56.859Z,100484.31
2023-04-16T20:03:24.525Z,100494.56
2023-04-16T20:05:51.833Z,100487.09
2023-04-16T20:08:19.091Z,100483.75
2023-04-16T20:10:48.203Z,100485.88
2023-04-16T20:13:17.401Z,100482.09
2023-04-16T20:15:47.311Z,100478.13
2023-04-16T20:18:14.745Z,100480.97
2023-04-16T20:20:42.147Z,100481.47
2023-04-16T20:23:09.473Z,100481.97
2023-04-16T20:25:41.634Z,100483.34
2023-04-16T20:28:10.221Z,100484.94
2023-04-16T20:30:40.406Z,100480.09
2023-04-16T20:33:07.921Z,100485.47
2023-04-16T20:35:35.383Z,100474.53
2023-04-16T20:38:02.987Z,100480.03
2023-04-16T20:40:30.544Z,100476.47
2023-04-16T20:43:00.029Z,100471.38
2023-04-16T20:45:38.444Z,100484.16
2023-04-16T20:48:06.287Z,100480.78
2023-04-16T20:50:34.045Z,100476.97
2023-04-16T20:53:01.713Z,100471.31
2023-04-16T20:55:29.347Z,100468.88
2023-04-16T20:57:56.549Z,100458.56
2023-04-16T21:00:24.262Z,100477.72
2023-04-16T21:02:53.283Z,100468.69
2023-04-16T21:05:21.532Z,100477.53
2023-04-16T21:07:48.979Z,100476.84
2023-04-16T21:10:20.398Z,100470.34
2023-04-16T21:12:49.563Z,100470.56
2023-04-16T21:15:17.056Z,100471.88
2023-04-16T21:17:44.515Z,100474.78
2023-04-16T21:20:14.140Z,100467.63
2023-04-16T21:22:41.492Z,100471.22
2023-04-16T21:25:09.899Z,100468.56
2023-04-16T21:27:37.268Z,100470.56
2023-04-16T21:30:05.353Z,100468.22
2023-04-16T21:32:32.840Z,100478.78
2023-04-16T21:35:00.778Z,100477.03
2023-04-16T21:37:29.569Z,100478.06
2023-04-16T21:39:56.897Z,100480.88
2023-04-16T21:42:24.465Z,100484.13
2023-04-16T21:44:51.787Z,100485.50
2023-04-16T21:47:19.528Z,100481.22
2023-04-16T21:49:46.864Z,100486.34
2023-04-16T21:52:20.373Z,100482.25
2023-04-16T21:54:49.117Z,100483.53
2023-04-16T21:57:16.789Z,100487.53
2023-04-16T21:59:44.155Z,100488.81
2023-04-16T22:02:11.469Z,100484.06
2023-04-16T22:04:39.158Z,100479.88
2023-04-16T22:07:11.795Z,100483.84
2023-04-16T22:09:39.250Z,100478.88
2023-04-16T22:12:10.378Z,100481.63
2023-04-16T22:14:42.045Z,100483.06
2023-04-16T22:17:15.136Z,100477.81
2023-04-16T22:19:42.820Z,100487.91
2023-04-16T22:22:10.502Z,100477.72
2023-04-16T22:24:37.783Z,100487.34
2023-04-16T22:27:05.152Z,100491.84
2023-04-16T22:29:33.912Z,100481.22
2023-04-16T22:32:02.027Z,100486.31
2023-04-16T22:34:29.742Z,100489.66
2023-04-16T22:36:57.176Z,100483.63
2023-04-16T22:39:24.577Z,100496.28
2023-04-16T22:41:51.803Z,100490.25
2023-04-16T22:44:19.271Z,100489.56
2023-04-16T22:46:48.058Z,100487.34
2023-04-16T22:49:15.576Z,100492.47
2023-04-16T22:51:43.551Z,100484.34
2023-04-16T22:54:13.807Z,100491.88
2023-04-16T22:56:41.668Z,100493.72
2023-04-16T22:59:09.135Z,100494.66
2023-04-16T23:01:36.867Z,100488.88
2023-04-16T23:04:06.003Z,100482.03
2023-04-16T23:06:33.256Z,100485.25
2023-04-16T23:09:00.744Z,100490.44
2023-04-16T23:11:28.069Z,100483.97
2023-04-16T23:13:55.912Z,100481.75
2023-04-16T23:16:23.174Z,100494.41
2023-04-16T23:18:50.539Z,100499.72
2023-04-16T23:21:19.176Z,100493.94
2023-04-16T23:23:46.794Z,100489.53
2023-04-16T23:26:14.089Z,100492.16
2023-04-16T23:28:41.772Z,100487.22
2023-04-16T23:31:09.268Z,100493.34
2023-04-16T23:33:36.648Z,100487.66
2023-04-16T23:36:04.562Z,100485.78
2023-04-16T23:38:33.354Z,100489.25
2023-04-16T23:41:01.071Z,100483.59
2023-04-16T23:43:28.293Z,100483.13
2023-04-16T23:45:55.978Z,100481.13
2023-04-16T23:48:23.379Z,100483.91
2023-04-16T23:50:50.903Z,100487.38
2023-04-16T23:53:18.186Z,100480.63
2023-04-16T23:55:47.014Z,100483.09
2023-04-16T23:58:14.278Z,100480.78
